sensor_id;sensor_type;location;lat;lon;timestamp;P1;durP1;ratioP1;P2;durP2;ratioP2
5147;SDS011;2592;48.140;7.614;2022-09-09T00:00:22;3.77;;;1.20;;
5147;SDS011;2592;48.140;7.614;2022-09-09T00:02:52;5.70;;;1.43;;
5147;SDS011;2592;48.140;7.614;2022-09-09T00:05:23;4.13;;;1.37;;
5147;SDS011;2592;48.140;7.614;2022-09-09T00:07:55;5.17;;;1.73;;
5147;SDS011;2592;48.140;7.614;2022-09-09T00:10:26;7.30;;;1.87;;
5147;SDS011;2592;48.140;7.614;2022-09-09T00:12:55;4.83;;;1.17;;
5147;SDS011;2592;48.140;7.614;2022-09-09T00:15:25;6.30;;;2.03;;
5147;SDS011;2592;48.140;7.614;2022-09-09T00:17:55;6.00;;;1.43;;
5147;SDS011;2592;48.140;7.614;2022-09-09T00:20:24;11.33;;;1.70;;
5147;SDS011;2592;48.140;7.614;2022-09-09T00:22:53;4.00;;;1.47;;
5147;SDS011;2592;48.140;7.614;2022-09-09T00:25:26;3.60;;;1.10;;
5147;SDS011;2592;48.140;7.614;2022-09-09T00:27:54;8.77;;;2.00;;
5147;SDS011;2592;48.140;7.614;2022-09-09T00:30:22;4.83;;;1.60;;
5147;SDS011;2592;48.140;7.614;2022-09-09T00:32:49;5.50;;;1.53;;
5147;SDS011;2592;48.140;7.614;2022-09-09T00:35:21;4.53;;;1.40;;
5147;SDS011;2592;48.140;7.614;2022-09-09T00:37:48;8.93;;;1.33;;
5147;SDS011;2592;48.140;7.614;2022-09-09T00:40:18;4.30;;;1.43;;
5147;SDS011;2592;48.140;7.614;2022-09-09T00:42:48;3.73;;;1.47;;
5147;SDS011;2592;48.140;7.614;2022-09-09T00:45:25;3.63;;;1.47;;
5147;SDS011;2592;48.140;7.614;2022-09-09T00:47:57;5.00;;;1.20;;
5147;SDS011;2592;48.140;7.614;2022-09-09T00:50:34;9.57;;;2.23;;
5147;SDS011;2592;48.140;7.614;2022-09-09T00:53:04;6.53;;;1.97;;
5147;SDS011;2592;48.140;7.614;2022-09-09T00:55:34;5.50;;;1.20;;
5147;SDS011;2592;48.140;7.614;2022-09-09T00:58:06;3.27;;;1.20;;
5147;SDS011;2592;48.140;7.614;2022-09-09T01:00:34;7.43;;;1.70;;
5147;SDS011;2592;48.140;7.614;2022-09-09T01:03:07;7.73;;;1.60;;
5147;SDS011;2592;48.140;7.614;2022-09-09T01:05:39;5.60;;;1.60;;
5147;SDS011;2592;48.140;7.614;2022-09-09T01:08:10;5.47;;;1.33;;
5147;SDS011;2592;48.140;7.614;2022-09-09T01:10:40;3.23;;;1.27;;
5147;SDS011;2592;48.140;7.614;2022-09-09T01:13:11;4.60;;;1.40;;
5147;SDS011;2592;48.140;7.614;2022-09-09T01:15:40;3.57;;;1.27;;
5147;SDS011;2592;48.140;7.614;2022-09-09T01:18:08;6.60;;;1.53;;
5147;SDS011;2592;48.140;7.614;2022-09-09T01:20:39;4.70;;;1.20;;
5147;SDS011;2592;48.140;7.614;2022-09-09T01:28:43;5.50;;;1.57;;
5147;SDS011;2592;48.140;7.614;2022-09-09T01:31:11;7.60;;;1.37;;
5147;SDS011;2592;48.140;7.614;2022-09-09T01:33:39;10.17;;;1.60;;
5147;SDS011;2592;48.140;7.614;2022-09-09T01:36:06;6.97;;;1.70;;
5147;SDS011;2592;48.140;7.614;2022-09-09T01:38:34;3.60;;;1.03;;
5147;SDS011;2592;48.140;7.614;2022-09-09T01:41:00;2.80;;;1.40;;
5147;SDS011;2592;48.140;7.614;2022-09-09T01:43:27;2.47;;;1.10;;
5147;SDS011;2592;48.140;7.614;2022-09-09T01:45:56;5.37;;;1.40;;
5147;SDS011;2592;48.140;7.614;2022-09-09T01:48:22;2.93;;;1.20;;
5147;SDS011;2592;48.140;7.614;2022-09-09T01:50:49;7.20;;;1.30;;
5147;SDS011;2592;48.140;7.614;2022-09-09T01:53:16;5.37;;;1.53;;
5147;SDS011;2592;48.140;7.614;2022-09-09T01:55:44;2.23;;;1.33;;
5147;SDS011;2592;48.140;7.614;2022-09-09T01:58:17;3.70;;;1.30;;
5147;SDS011;2592;48.140;7.614;2022-09-09T02:00:51;8.93;;;1.33;;
5147;SDS011;2592;48.140;7.614;2022-09-09T02:03:22;4.60;;;1.50;;
5147;SDS011;2592;48.140;7.614;2022-09-09T02:05:52;3.00;;;1.33;;
5147;SDS011;2592;48.140;7.614;2022-09-09T02:08:23;6.00;;;1.50;;
5147;SDS011;2592;48.140;7.614;2022-09-09T02:10:50;2.43;;;1.23;;
5147;SDS011;2592;48.140;7.614;2022-09-09T02:13:20;2.73;;;1.27;;
5147;SDS011;2592;48.140;7.614;2022-09-09T02:15:50;7.53;;;2.17;;
5147;SDS011;2592;48.140;7.614;2022-09-09T02:18:19;4.00;;;1.27;;
5147;SDS011;2592;48.140;7.614;2022-09-09T02:20:48;14.60;;;1.77;;
5147;SDS011;2592;48.140;7.614;2022-09-09T02:23:16;5.57;;;1.40;;
5147;SDS011;2592;48.140;7.614;2022-09-09T02:25:44;7.10;;;1.50;;
5147;SDS011;2592;48.140;7.614;2022-09-09T02:28:11;2.70;;;1.60;;
5147;SDS011;2592;48.140;7.614;2022-09-09T02:30:38;4.67;;;1.43;;
5147;SDS011;2592;48.140;7.614;2022-09-09T02:33:06;3.60;;;1.13;;
5147;SDS011;2592;48.140;7.614;2022-09-09T02:35:33;7.30;;;2.20;;
5147;SDS011;2592;48.140;7.614;2022-09-09T02:38:04;4.37;;;1.77;;
5147;SDS011;2592;48.140;7.614;2022-09-09T02:40:32;3.50;;;1.90;;
5147;SDS011;2592;48.140;7.614;2022-09-09T02:42:59;4.57;;;1.77;;
5147;SDS011;2592;48.140;7.614;2022-09-09T02:45:27;5.93;;;1.63;;
5147;SDS011;2592;48.140;7.614;2022-09-09T02:47:56;3.77;;;2.10;;
5147;SDS011;2592;48.140;7.614;2022-09-09T02:50:29;3.43;;;1.40;;
5147;SDS011;2592;48.140;7.614;2022-09-09T02:53:01;5.43;;;1.60;;
5147;SDS011;2592;48.140;7.614;2022-09-09T02:55:35;5.17;;;1.80;;
5147;SDS011;2592;48.140;7.614;2022-09-09T02:58:03;9.30;;;2.37;;
5147;SDS011;2592;48.140;7.614;2022-09-09T03:00:32;6.17;;;1.50;;
5147;SDS011;2592;48.140;7.614;2022-09-09T03:03:00;7.70;;;1.57;;
5147;SDS011;2592;48.140;7.614;2022-09-09T03:05:27;6.60;;;1.60;;
5147;SDS011;2592;48.140;7.614;2022-09-09T03:07:54;4.70;;;1.53;;
5147;SDS011;2592;48.140;7.614;2022-09-09T03:10:20;4.20;;;1.53;;
5147;SDS011;2592;48.140;7.614;2022-09-09T03:12:48;2.50;;;1.40;;
5147;SDS011;2592;48.140;7.614;2022-09-09T03:15:15;2.90;;;1.60;;
5147;SDS011;2592;48.140;7.614;2022-09-09T03:17:41;3.10;;;1.70;;
5147;SDS011;2592;48.140;7.614;2022-09-09T03:20:08;3.30;;;1.70;;
5147;SDS011;2592;48.140;7.614;2022-09-09T03:22:35;5.60;;;2.00;;
5147;SDS011;2592;48.140;7.614;2022-09-09T03:25:01;6.83;;;2.37;;
5147;SDS011;2592;48.140;7.614;2022-09-09T03:27:28;5.23;;;1.53;;
5147;SDS011;2592;48.140;7.614;2022-09-09T03:29:55;4.90;;;1.60;;
5147;SDS011;2592;48.140;7.614;2022-09-09T03:32:22;7.13;;;2.37;;
5147;SDS011;2592;48.140;7.614;2022-09-09T03:34:50;6.13;;;2.10;;
5147;SDS011;2592;48.140;7.614;2022-09-09T03:37:17;4.90;;;1.50;;
5147;SDS011;2592;48.140;7.614;2022-09-09T03:39:44;5.27;;;1.83;;
5147;SDS011;2592;48.140;7.614;2022-09-09T03:42:12;3.83;;;1.53;;
5147;SDS011;2592;48.140;7.614;2022-09-09T03:44:39;5.73;;;2.03;;
5147;SDS011;2592;48.140;7.614;2022-09-09T03:47:07;5.60;;;1.63;;
5147;SDS011;2592;48.140;7.614;2022-09-09T03:49:33;6.00;;;1.93;;
5147;SDS011;2592;48.140;7.614;2022-09-09T03:52:00;5.10;;;1.77;;
5147;SDS011;2592;48.140;7.614;2022-09-09T03:54:26;6.83;;;1.17;;
5147;SDS011;2592;48.140;7.614;2022-09-09T03:56:53;4.63;;;1.70;;
5147;SDS011;2592;48.140;7.614;2022-09-09T03:59:19;4.03;;;1.30;;
5147;SDS011;2592;48.140;7.614;2022-09-09T04:01:46;7.30;;;1.80;;
5147;SDS011;2592;48.140;7.614;2022-09-09T04:04:14;3.87;;;1.50;;
5147;SDS011;2592;48.140;7.614;2022-09-09T04:06:40;3.20;;;1.60;;
5147;SDS011;2592;48.140;7.614;2022-09-09T04:09:07;6.83;;;2.07;;
5147;SDS011;2592;48.140;7.614;2022-09-09T04:11:33;7.80;;;1.80;;
5147;SDS011;2592;48.140;7.614;2022-09-09T04:14:00;5.33;;;1.40;;
5147;SDS011;2592;48.140;7.614;2022-09-09T04:16:26;3.60;;;1.57;;
5147;SDS011;2592;48.140;7.614;2022-09-09T04:18:53;5.03;;;1.53;;
5147;SDS011;2592;48.140;7.614;2022-09-09T04:21:20;4.00;;;1.80;;
5147;SDS011;2592;48.140;7.614;2022-09-09T04:23:48;3.10;;;1.30;;
5147;SDS011;2592;48.140;7.614;2022-09-09T04:26:14;2.13;;;1.40;;
5147;SDS011;2592;48.140;7.614;2022-09-09T04:28:41;3.30;;;1.50;;
5147;SDS011;2592;48.140;7.614;2022-09-09T04:31:08;4.60;;;1.90;;
5147;SDS011;2592;48.140;7.614;2022-09-09T04:33:36;11.20;;;2.50;;
5147;SDS011;2592;48.140;7.614;2022-09-09T04:36:04;8.40;;;2.23;;
5147;SDS011;2592;48.140;7.614;2022-09-09T04:38:32;5.90;;;2.13;;
5147;SDS011;2592;48.140;7.614;2022-09-09T04:40:58;4.40;;;1.70;;
5147;SDS011;2592;48.140;7.614;2022-09-09T04:43:25;7.27;;;1.63;;
5147;SDS011;2592;48.140;7.614;2022-09-09T04:45:55;6.27;;;1.70;;
5147;SDS011;2592;48.140;7.614;2022-09-09T04:48:22;8.00;;;2.03;;
5147;SDS011;2592;48.140;7.614;2022-09-09T04:50:56;4.47;;;2.00;;
5147;SDS011;2592;48.140;7.614;2022-09-09T04:53:22;6.00;;;2.10;;
5147;SDS011;2592;48.140;7.614;2022-09-09T04:55:52;3.40;;;1.70;;
5147;SDS011;2592;48.140;7.614;2022-09-09T04:58:18;4.87;;;1.40;;
5147;SDS011;2592;48.140;7.614;2022-09-09T05:00:46;4.30;;;2.20;;
5147;SDS011;2592;48.140;7.614;2022-09-09T05:03:13;6.70;;;1.60;;
5147;SDS011;2592;48.140;7.614;2022-09-09T05:05:39;4.30;;;1.73;;
5147;SDS011;2592;48.140;7.614;2022-09-09T05:08:07;4.30;;;1.60;;
5147;SDS011;2592;48.140;7.614;2022-09-09T05:10:33;4.50;;;1.70;;
5147;SDS011;2592;48.140;7.614;2022-09-09T05:13:02;5.30;;;2.30;;
5147;SDS011;2592;48.140;7.614;2022-09-09T05:15:29;14.70;;;3.00;;
5147;SDS011;2592;48.140;7.614;2022-09-09T05:17:56;5.30;;;2.70;;
5147;SDS011;2592;48.140;7.614;2022-09-09T05:20:24;6.20;;;2.70;;
5147;SDS011;2592;48.140;7.614;2022-09-09T05:22:52;5.53;;;2.20;;
5147;SDS011;2592;48.140;7.614;2022-09-09T05:25:18;10.47;;;3.30;;
5147;SDS011;2592;48.140;7.614;2022-09-09T05:27:45;7.33;;;2.80;;
5147;SDS011;2592;48.140;7.614;2022-09-09T05:30:13;3.60;;;2.17;;
5147;SDS011;2592;48.140;7.614;2022-09-09T05:32:39;6.50;;;1.70;;
5147;SDS011;2592;48.140;7.614;2022-09-09T05:35:06;8.10;;;2.37;;
5147;SDS011;2592;48.140;7.614;2022-09-09T05:37:32;7.87;;;1.90;;
5147;SDS011;2592;48.140;7.614;2022-09-09T05:40:00;5.60;;;2.07;;
5147;SDS011;2592;48.140;7.614;2022-09-09T05:42:29;10.60;;;2.00;;
5147;SDS011;2592;48.140;7.614;2022-09-09T05:44:55;9.17;;;2.27;;
5147;SDS011;2592;48.140;7.614;2022-09-09T05:47:24;9.63;;;2.00;;
5147;SDS011;2592;48.140;7.614;2022-09-09T05:49:52;3.53;;;1.60;;
5147;SDS011;2592;48.140;7.614;2022-09-09T05:52:19;4.67;;;1.80;;
5147;SDS011;2592;48.140;7.614;2022-09-09T05:54:45;3.40;;;1.80;;
5147;SDS011;2592;48.140;7.614;2022-09-09T05:57:12;9.40;;;2.07;;
5147;SDS011;2592;48.140;7.614;2022-09-09T05:59:38;3.63;;;1.57;;
5147;SDS011;2592;48.140;7.614;2022-09-09T06:02:05;3.13;;;1.57;;
5147;SDS011;2592;48.140;7.614;2022-09-09T06:04:32;9.37;;;1.33;;
5147;SDS011;2592;48.140;7.614;2022-09-09T06:06:59;5.47;;;1.40;;
5147;SDS011;2592;48.140;7.614;2022-09-09T06:09:26;2.93;;;1.23;;
5147;SDS011;2592;48.140;7.614;2022-09-09T06:11:52;5.37;;;1.60;;
5147;SDS011;2592;48.140;7.614;2022-09-09T06:14:20;4.30;;;1.63;;
5147;SDS011;2592;48.140;7.614;2022-09-09T06:16:46;6.00;;;1.50;;
5147;SDS011;2592;48.140;7.614;2022-09-09T06:19:13;6.97;;;1.63;;
5147;SDS011;2592;48.140;7.614;2022-09-09T06:21:41;2.57;;;1.40;;
5147;SDS011;2592;48.140;7.614;2022-09-09T06:24:07;10.90;;;2.00;;
5147;SDS011;2592;48.140;7.614;2022-09-09T06:26:34;10.23;;;2.20;;
5147;SDS011;2592;48.140;7.614;2022-09-09T06:29:02;6.57;;;1.50;;
5147;SDS011;2592;48.140;7.614;2022-09-09T06:31:29;5.23;;;1.50;;
5147;SDS011;2592;48.140;7.614;2022-09-09T06:33:56;5.80;;;1.83;;
5147;SDS011;2592;48.140;7.614;2022-09-09T06:36:24;4.30;;;1.67;;
5147;SDS011;2592;48.140;7.614;2022-09-09T06:38:52;4.83;;;1.67;;
5147;SDS011;2592;48.140;7.614;2022-09-09T06:41:19;6.63;;;1.67;;
5147;SDS011;2592;48.140;7.614;2022-09-09T06:43:46;6.17;;;1.60;;
5147;SDS011;2592;48.140;7.614;2022-09-09T06:46:13;9.60;;;1.77;;
5147;SDS011;2592;48.140;7.614;2022-09-09T06:48:40;4.20;;;1.40;;
5147;SDS011;2592;48.140;7.614;2022-09-09T06:51:07;5.13;;;1.40;;
5147;SDS011;2592;48.140;7.614;2022-09-09T06:53:34;3.20;;;1.40;;
5147;SDS011;2592;48.140;7.614;2022-09-09T06:56:13;6.93;;;1.10;;
5147;SDS011;2592;48.140;7.614;2022-09-09T06:58:43;5.17;;;1.60;;
5147;SDS011;2592;48.140;7.614;2022-09-09T07:01:10;7.40;;;1.50;;
5147;SDS011;2592;48.140;7.614;2022-09-09T07:03:37;2.03;;;1.10;;
5147;SDS011;2592;48.140;7.614;2022-09-09T07:06:04;4.90;;;1.37;;
5147;SDS011;2592;48.140;7.614;2022-09-09T07:08:31;8.10;;;1.43;;
5147;SDS011;2592;48.140;7.614;2022-09-09T07:11:03;4.30;;;1.27;;
5147;SDS011;2592;48.140;7.614;2022-09-09T07:13:31;7.20;;;1.47;;
5147;SDS011;2592;48.140;7.614;2022-09-09T07:16:02;6.10;;;1.80;;
5147;SDS011;2592;48.140;7.614;2022-09-09T07:18:29;5.23;;;2.07;;
5147;SDS011;2592;48.140;7.614;2022-09-09T07:20:55;11.70;;;2.00;;
5147;SDS011;2592;48.140;7.614;2022-09-09T07:23:22;6.20;;;1.97;;
5147;SDS011;2592;48.140;7.614;2022-09-09T07:25:49;2.70;;;1.37;;
5147;SDS011;2592;48.140;7.614;2022-09-09T07:28:17;8.73;;;2.50;;
5147;SDS011;2592;48.140;7.614;2022-09-09T07:30:43;7.10;;;2.17;;
5147;SDS011;2592;48.140;7.614;2022-09-09T07:33:09;8.70;;;1.90;;
5147;SDS011;2592;48.140;7.614;2022-09-09T07:35:36;4.77;;;1.67;;
5147;SDS011;2592;48.140;7.614;2022-09-09T07:38:03;7.50;;;1.80;;
5147;SDS011;2592;48.140;7.614;2022-09-09T07:40:31;7.70;;;2.10;;
5147;SDS011;2592;48.140;7.614;2022-09-09T07:42:58;4.30;;;1.87;;
5147;SDS011;2592;48.140;7.614;2022-09-09T07:45:26;4.63;;;1.60;;
5147;SDS011;2592;48.140;7.614;2022-09-09T07:47:53;8.23;;;1.83;;
5147;SDS011;2592;48.140;7.614;2022-09-09T07:50:21;11.23;;;2.43;;
5147;SDS011;2592;48.140;7.614;2022-09-09T07:52:48;9.23;;;1.63;;
5147;SDS011;2592;48.140;7.614;2022-09-09T07:55:15;15.80;;;1.60;;
5147;SDS011;2592;48.140;7.614;2022-09-09T07:57:41;4.60;;;1.37;;
5147;SDS011;2592;48.140;7.614;2022-09-09T08:00:08;8.03;;;1.77;;
5147;SDS011;2592;48.140;7.614;2022-09-09T08:02:37;9.00;;;1.67;;
5147;SDS011;2592;48.140;7.614;2022-09-09T08:05:03;5.50;;;1.80;;
5147;SDS011;2592;48.140;7.614;2022-09-09T08:07:31;8.33;;;1.60;;
5147;SDS011;2592;48.140;7.614;2022-09-09T08:09:57;9.83;;;2.30;;
5147;SDS011;2592;48.140;7.614;2022-09-09T08:12:23;6.77;;;1.40;;
5147;SDS011;2592;48.140;7.614;2022-09-09T08:14:50;7.60;;;1.80;;
5147;SDS011;2592;48.140;7.614;2022-09-09T08:17:19;5.43;;;1.50;;
5147;SDS011;2592;48.140;7.614;2022-09-09T08:19:46;5.40;;;1.80;;
5147;SDS011;2592;48.140;7.614;2022-09-09T08:22:13;10.97;;;2.60;;
5147;SDS011;2592;48.140;7.614;2022-09-09T08:24:39;4.00;;;1.30;;
5147;SDS011;2592;48.140;7.614;2022-09-09T08:27:06;6.17;;;1.60;;
5147;SDS011;2592;48.140;7.614;2022-09-09T08:29:32;6.83;;;1.83;;
5147;SDS011;2592;48.140;7.614;2022-09-09T08:31:59;10.07;;;1.73;;
5147;SDS011;2592;48.140;7.614;2022-09-09T08:34:27;5.40;;;1.60;;
5147;SDS011;2592;48.140;7.614;2022-09-09T08:36:56;6.50;;;2.13;;
5147;SDS011;2592;48.140;7.614;2022-09-09T08:39:23;2.90;;;1.20;;
5147;SDS011;2592;48.140;7.614;2022-09-09T08:44:37;8.13;;;1.50;;
5147;SDS011;2592;48.140;7.614;2022-09-09T08:47:10;9.03;;;1.77;;
5147;SDS011;2592;48.140;7.614;2022-09-09T08:52:21;2.77;;;1.00;;
5147;SDS011;2592;48.140;7.614;2022-09-09T08:54:48;10.33;;;1.67;;
5147;SDS011;2592;48.140;7.614;2022-09-09T08:57:17;4.67;;;2.03;;
5147;SDS011;2592;48.140;7.614;2022-09-09T08:59:45;5.60;;;1.20;;
5147;SDS011;2592;48.140;7.614;2022-09-09T09:02:14;4.03;;;1.70;;
5147;SDS011;2592;48.140;7.614;2022-09-09T09:04:45;6.30;;;2.03;;
5147;SDS011;2592;48.140;7.614;2022-09-09T09:07:19;8.83;;;2.00;;
5147;SDS011;2592;48.140;7.614;2022-09-09T09:09:57;5.60;;;2.07;;
5147;SDS011;2592;48.140;7.614;2022-09-09T09:12:25;14.83;;;2.13;;
5147;SDS011;2592;48.140;7.614;2022-09-09T09:14:54;6.70;;;1.70;;
5147;SDS011;2592;48.140;7.614;2022-09-09T09:17:23;5.67;;;1.33;;
5147;SDS011;2592;48.140;7.614;2022-09-09T09:19:51;11.50;;;2.10;;
5147;SDS011;2592;48.140;7.614;2022-09-09T09:22:18;3.53;;;1.40;;
5147;SDS011;2592;48.140;7.614;2022-09-09T09:24:49;6.03;;;1.70;;
5147;SDS011;2592;48.140;7.614;2022-09-09T09:27:19;5.03;;;1.83;;
5147;SDS011;2592;48.140;7.614;2022-09-09T09:29:48;9.30;;;1.27;;
5147;SDS011;2592;48.140;7.614;2022-09-09T09:32:17;5.93;;;1.40;;
5147;SDS011;2592;48.140;7.614;2022-09-09T09:34:48;6.03;;;1.80;;
5147;SDS011;2592;48.140;7.614;2022-09-09T09:37:15;4.23;;;1.27;;
5147;SDS011;2592;48.140;7.614;2022-09-09T09:39:44;9.53;;;1.50;;
5147;SDS011;2592;48.140;7.614;2022-09-09T09:42:12;5.90;;;1.33;;
5147;SDS011;2592;48.140;7.614;2022-09-09T09:44:40;8.27;;;1.67;;
5147;SDS011;2592;48.140;7.614;2022-09-09T09:47:08;7.67;;;1.70;;
5147;SDS011;2592;48.140;7.614;2022-09-09T09:49:34;4.63;;;1.07;;
5147;SDS011;2592;48.140;7.614;2022-09-09T09:52:01;17.20;;;1.33;;
5147;SDS011;2592;48.140;7.614;2022-09-09T09:54:28;7.03;;;1.20;;
5147;SDS011;2592;48.140;7.614;2022-09-09T09:56:56;3.53;;;1.10;;
5147;SDS011;2592;48.140;7.614;2022-09-09T09:59:23;9.83;;;1.00;;
5147;SDS011;2592;48.140;7.614;2022-09-09T10:02:10;3.33;;;1.23;;
5147;SDS011;2592;48.140;7.614;2022-09-09T10:04:39;4.00;;;1.07;;
5147;SDS011;2592;48.140;7.614;2022-09-09T10:07:09;2.60;;;1.40;;
5147;SDS011;2592;48.140;7.614;2022-09-09T10:09:36;5.83;;;1.37;;
5147;SDS011;2592;48.140;7.614;2022-09-09T10:12:04;4.60;;;1.43;;
5147;SDS011;2592;48.140;7.614;2022-09-09T10:14:36;6.20;;;1.73;;
5147;SDS011;2592;48.140;7.614;2022-09-09T10:17:12;3.57;;;1.27;;
5147;SDS011;2592;48.140;7.614;2022-09-09T10:19:40;3.33;;;1.30;;
5147;SDS011;2592;48.140;7.614;2022-09-09T10:22:12;7.27;;;1.33;;
5147;SDS011;2592;48.140;7.614;2022-09-09T10:24:57;2.67;;;0.90;;
5147;SDS011;2592;48.140;7.614;2022-09-09T10:27:29;3.40;;;1.00;;
5147;SDS011;2592;48.140;7.614;2022-09-09T10:30:00;4.37;;;1.37;;
5147;SDS011;2592;48.140;7.614;2022-09-09T10:32:33;1.70;;;0.80;;
5147;SDS011;2592;48.140;7.614;2022-09-09T10:35:02;4.37;;;1.30;;
5147;SDS011;2592;48.140;7.614;2022-09-09T10:37:37;3.50;;;1.10;;
5147;SDS011;2592;48.140;7.614;2022-09-09T10:40:12;5.13;;;1.13;;
5147;SDS011;2592;48.140;7.614;2022-09-09T10:42:41;3.27;;;0.90;;
5147;SDS011;2592;48.140;7.614;2022-09-09T10:45:13;4.40;;;1.27;;
5147;SDS011;2592;48.140;7.614;2022-09-09T10:47:49;2.90;;;0.80;;
5147;SDS011;2592;48.140;7.614;2022-09-09T10:50:24;5.20;;;0.80;;
5147;SDS011;2592;48.140;7.614;2022-09-09T10:52:53;1.47;;;0.93;;
5147;SDS011;2592;48.140;7.614;2022-09-09T10:55:24;4.83;;;0.90;;
5147;SDS011;2592;48.140;7.614;2022-09-09T10:57:53;5.70;;;1.27;;
5147;SDS011;2592;48.140;7.614;2022-09-09T11:00:21;3.10;;;1.00;;
5147;SDS011;2592;48.140;7.614;2022-09-09T11:02:50;4.83;;;0.97;;
5147;SDS011;2592;48.140;7.614;2022-09-09T11:05:19;2.20;;;0.87;;
5147;SDS011;2592;48.140;7.614;2022-09-09T11:07:47;5.07;;;1.37;;
5147;SDS011;2592;48.140;7.614;2022-09-09T11:10:17;4.23;;;1.00;;
5147;SDS011;2592;48.140;7.614;2022-09-09T11:12:48;2.20;;;0.93;;
5147;SDS011;2592;48.140;7.614;2022-09-09T11:15:17;4.67;;;1.10;;
5147;SDS011;2592;48.140;7.614;2022-09-09T11:17:46;3.63;;;1.30;;
5147;SDS011;2592;48.140;7.614;2022-09-09T11:20:15;3.87;;;1.10;;
5147;SDS011;2592;48.140;7.614;2022-09-09T11:22:43;5.00;;;0.90;;
5147;SDS011;2592;48.140;7.614;2022-09-09T11:25:14;2.30;;;0.87;;
5147;SDS011;2592;48.140;7.614;2022-09-09T11:27:42;10.00;;;0.80;;
5147;SDS011;2592;48.140;7.614;2022-09-09T11:30:14;1.93;;;0.90;;
5147;SDS011;2592;48.140;7.614;2022-09-09T11:32:53;4.60;;;1.10;;
5147;SDS011;2592;48.140;7.614;2022-09-09T11:35:30;4.23;;;1.10;;
5147;SDS011;2592;48.140;7.614;2022-09-09T11:38:09;4.07;;;1.03;;
5147;SDS011;2592;48.140;7.614;2022-09-09T11:40:39;1.93;;;0.80;;
5147;SDS011;2592;48.140;7.614;2022-09-09T11:43:09;2.33;;;1.10;;
5147;SDS011;2592;48.140;7.614;2022-09-09T11:45:37;3.23;;;1.00;;
5147;SDS011;2592;48.140;7.614;2022-09-09T11:48:04;5.97;;;1.13;;
5147;SDS011;2592;48.140;7.614;2022-09-09T11:50:34;2.87;;;1.10;;
5147;SDS011;2592;48.140;7.614;2022-09-09T11:56:11;5.30;;;1.07;;
5147;SDS011;2592;48.140;7.614;2022-09-09T11:58:39;5.80;;;1.10;;
5147;SDS011;2592;48.140;7.614;2022-09-09T12:01:13;5.13;;;1.10;;
5147;SDS011;2592;48.140;7.614;2022-09-09T12:03:41;10.23;;;1.63;;
5147;SDS011;2592;48.140;7.614;2022-09-09T12:06:10;6.13;;;0.97;;
5147;SDS011;2592;48.140;7.614;2022-09-09T12:08:39;2.63;;;0.90;;
5147;SDS011;2592;48.140;7.614;2022-09-09T12:11:07;6.13;;;1.20;;
5147;SDS011;2592;48.140;7.614;2022-09-09T12:13:33;6.63;;;1.20;;
5147;SDS011;2592;48.140;7.614;2022-09-09T12:16:01;7.77;;;2.10;;
5147;SDS011;2592;48.140;7.614;2022-09-09T12:18:31;3.43;;;0.93;;
5147;SDS011;2592;48.140;7.614;2022-09-09T12:21:00;6.17;;;1.47;;
5147;SDS011;2592;48.140;7.614;2022-09-09T12:23:36;2.00;;;0.90;;
5147;SDS011;2592;48.140;7.614;2022-09-09T12:26:11;2.70;;;0.83;;
5147;SDS011;2592;48.140;7.614;2022-09-09T12:28:43;2.60;;;0.90;;
5147;SDS011;2592;48.140;7.614;2022-09-09T12:31:12;7.27;;;1.10;;
5147;SDS011;2592;48.140;7.614;2022-09-09T12:33:43;9.83;;;1.10;;
5147;SDS011;2592;48.140;7.614;2022-09-09T12:36:11;2.67;;;1.23;;
5147;SDS011;2592;48.140;7.614;2022-09-09T12:38:40;3.63;;;0.90;;
5147;SDS011;2592;48.140;7.614;2022-09-09T12:41:15;8.00;;;1.47;;
5147;SDS011;2592;48.140;7.614;2022-09-09T12:43:44;8.17;;;1.40;;
5147;SDS011;2592;48.140;7.614;2022-09-09T12:46:24;4.23;;;1.00;;
5147;SDS011;2592;48.140;7.614;2022-09-09T12:48:54;11.73;;;1.17;;
5147;SDS011;2592;48.140;7.614;2022-09-09T12:51:22;1.80;;;0.80;;
5147;SDS011;2592;48.140;7.614;2022-09-09T12:53:52;1.87;;;0.70;;
5147;SDS011;2592;48.140;7.614;2022-09-09T12:56:19;3.73;;;0.87;;
5147;SDS011;2592;48.140;7.614;2022-09-09T12:58:46;3.80;;;0.90;;
5147;SDS011;2592;48.140;7.614;2022-09-09T13:01:18;4.70;;;1.20;;
5147;SDS011;2592;48.140;7.614;2022-09-09T13:03:46;4.00;;;0.97;;
5147;SDS011;2592;48.140;7.614;2022-09-09T13:06:13;4.33;;;0.90;;
5147;SDS011;2592;48.140;7.614;2022-09-09T13:08:44;2.37;;;0.83;;
5147;SDS011;2592;48.140;7.614;2022-09-09T13:11:12;3.50;;;0.90;;
5147;SDS011;2592;48.140;7.614;2022-09-09T13:13:41;4.90;;;1.37;;
5147;SDS011;2592;48.140;7.614;2022-09-09T13:16:18;2.70;;;0.90;;
5147;SDS011;2592;48.140;7.614;2022-09-09T13:18:45;1.47;;;0.60;;
5147;SDS011;2592;48.140;7.614;2022-09-09T13:21:12;3.27;;;1.10;;
5147;SDS011;2592;48.140;7.614;2022-09-09T13:23:39;3.00;;;1.03;;
5147;SDS011;2592;48.140;7.614;2022-09-09T13:26:06;6.50;;;0.90;;
5147;SDS011;2592;48.140;7.614;2022-09-09T13:28:34;4.13;;;0.70;;
5147;SDS011;2592;48.140;7.614;2022-09-09T13:31:01;4.33;;;1.13;;
5147;SDS011;2592;48.140;7.614;2022-09-09T13:33:29;3.20;;;1.07;;
5147;SDS011;2592;48.140;7.614;2022-09-09T13:35:56;2.80;;;0.80;;
5147;SDS011;2592;48.140;7.614;2022-09-09T13:38:23;9.03;;;0.87;;
5147;SDS011;2592;48.140;7.614;2022-09-09T13:40:54;1.60;;;0.67;;
5147;SDS011;2592;48.140;7.614;2022-09-09T13:43:22;1.10;;;0.67;;
5147;SDS011;2592;48.140;7.614;2022-09-09T13:45:55;2.60;;;1.03;;
5147;SDS011;2592;48.140;7.614;2022-09-09T13:48:23;2.20;;;0.80;;
5147;SDS011;2592;48.140;7.614;2022-09-09T13:50:56;4.53;;;1.13;;
5147;SDS011;2592;48.140;7.614;2022-09-09T13:53:23;1.33;;;0.70;;
5147;SDS011;2592;48.140;7.614;2022-09-09T13:55:49;6.23;;;1.00;;
5147;SDS011;2592;48.140;7.614;2022-09-09T13:58:16;1.30;;;0.60;;
5147;SDS011;2592;48.140;7.614;2022-09-09T14:00:44;2.33;;;1.00;;
5147;SDS011;2592;48.140;7.614;2022-09-09T14:03:12;1.57;;;0.70;;
5147;SDS011;2592;48.140;7.614;2022-09-09T14:05:39;3.37;;;0.80;;
5147;SDS011;2592;48.140;7.614;2022-09-09T14:08:07;4.57;;;0.70;;
5147;SDS011;2592;48.140;7.614;2022-09-09T14:10:38;2.90;;;1.27;;
5147;SDS011;2592;48.140;7.614;2022-09-09T14:13:05;4.43;;;1.10;;
5147;SDS011;2592;48.140;7.614;2022-09-09T14:15:33;2.50;;;0.80;;
5147;SDS011;2592;48.140;7.614;2022-09-09T14:17:59;3.00;;;1.27;;
5147;SDS011;2592;48.140;7.614;2022-09-09T14:20:28;1.90;;;0.70;;
5147;SDS011;2592;48.140;7.614;2022-09-09T14:22:55;5.83;;;0.90;;
5147;SDS011;2592;48.140;7.614;2022-09-09T14:25:23;5.30;;;1.20;;
5147;SDS011;2592;48.140;7.614;2022-09-09T14:27:50;3.40;;;1.30;;
5147;SDS011;2592;48.140;7.614;2022-09-09T14:30:17;3.33;;;0.90;;
5147;SDS011;2592;48.140;7.614;2022-09-09T14:32:43;3.17;;;1.10;;
5147;SDS011;2592;48.140;7.614;2022-09-09T14:35:10;6.20;;;1.20;;
5147;SDS011;2592;48.140;7.614;2022-09-09T14:37:38;1.27;;;0.73;;
5147;SDS011;2592;48.140;7.614;2022-09-09T14:40:05;3.70;;;1.00;;
5147;SDS011;2592;48.140;7.614;2022-09-09T14:42:32;2.10;;;1.00;;
5147;SDS011;2592;48.140;7.614;2022-09-09T14:44:58;5.07;;;1.20;;
5147;SDS011;2592;48.140;7.614;2022-09-09T14:47:25;4.43;;;0.90;;
5147;SDS011;2592;48.140;7.614;2022-09-09T14:49:51;3.07;;;1.03;;
5147;SDS011;2592;48.140;7.614;2022-09-09T14:52:18;2.70;;;0.80;;
5147;SDS011;2592;48.140;7.614;2022-09-09T14:54:46;5.73;;;1.00;;
5147;SDS011;2592;48.140;7.614;2022-09-09T14:57:13;5.53;;;1.13;;
5147;SDS011;2592;48.140;7.614;2022-09-09T14:59:39;3.13;;;0.87;;
5147;SDS011;2592;48.140;7.614;2022-09-09T15:02:07;2.00;;;0.83;;
5147;SDS011;2592;48.140;7.614;2022-09-09T15:04:34;2.40;;;0.90;;
5147;SDS011;2592;48.140;7.614;2022-09-09T15:07:00;6.93;;;1.87;;
5147;SDS011;2592;48.140;7.614;2022-09-09T15:09:27;2.53;;;1.20;;
5147;SDS011;2592;48.140;7.614;2022-09-09T15:11:55;3.13;;;1.00;;
5147;SDS011;2592;48.140;7.614;2022-09-09T15:14:21;5.10;;;0.90;;
5147;SDS011;2592;48.140;7.614;2022-09-09T15:16:48;2.90;;;1.20;;
5147;SDS011;2592;48.140;7.614;2022-09-09T15:19:14;6.20;;;1.80;;
5147;SDS011;2592;48.140;7.614;2022-09-09T15:21:41;4.93;;;0.83;;
5147;SDS011;2592;48.140;7.614;2022-09-09T15:24:07;2.80;;;0.87;;
5147;SDS011;2592;48.140;7.614;2022-09-09T15:26:34;5.43;;;0.93;;
5147;SDS011;2592;48.140;7.614;2022-09-09T15:29:05;3.17;;;0.83;;
5147;SDS011;2592;48.140;7.614;2022-09-09T15:31:32;4.80;;;1.43;;
5147;SDS011;2592;48.140;7.614;2022-09-09T15:33:59;3.00;;;0.90;;
5147;SDS011;2592;48.140;7.614;2022-09-09T15:36:27;4.40;;;1.20;;